Tiempo atmosférico en la estación meteorológica de Tijarafe, Santa Cruz de Tenerife (733 m.)



Fecha
DESCASC
Temp. máxima en grados centígrados (hora)
DESCASC
Temp. mínima en grados centígrados (hora)
DESCASC
Temp. media en grados centígrados
DESCASC
Racha de viento máxima en m/sg (hora)
DESCASC
Velocidad máxima media en intervalos de 10 minutos(hora)
DESCASC
Precipitaciones diarias en mm
DESCASC
Precipitaciones de 00:00 a 06:00 en mm
DESCASC
Precipitaciones de 06:00 a 12:00 en mm
DESCASC
Precipitaciones de 12:00 a 18:00 en mm
DESCASC
Precipitaciones de 18:00 a 24:00 en mm
DESCASC
28-02-2021 17 (13:10) 8.1 (03:40) 12.6 5.28 (14:30) 2.5 (14:30) 0 0 0 0 0
27-02-2021 15.4 (12:20) 8.7 (06:40) 12 8.33 (17:30) 4.17 (01:30) 0 0 0 0 0
26-02-2021 16.1 (14:50) 8.9 (07:30) 12.5 9.17 (00:20) 6.39 (00:30) 0 0 0 0 0
25-02-2021 18 (14:40) 10.2 (00:00) 14.1 7.78 (18:50) 5 (20:50) 0 0 0 0 0
24-02-2021 17.4 (15:00) 10.1 (00:00) 13.8 5.56 (14:20) 3.33 (21:10) 0 0 0 0 0
23-02-2021 17.3 (17:00) 11.2 (00:00) 14.2 7.78 (14:30) 5.56 (14:40) 0.2 0 0 0.2 0
22-02-2021 16.7 (14:20) 10.1 (00:00) 13.4 6.11 (13:50) 3.61 (04:00) 1.4 0 0 0.8 0.6
21-02-2021 15.1 (12:30) 9.7 (00:00) 12.4 16.94 (00:10) 11.11 (01:00) 0 0 0 0 0
20-02-2021 15.5 (11:20) 10.3 (00:00) 12.9 20 (22:20) 13.33 (22:20) 10.2 0 0 9.2 1
19-02-2021 18.3 (15:20) 9.7 (00:00) 14 5 (17:00) 3.89 (06:50) 0 0 0 0 0
18-02-2021 17.6 (15:40) 10.2 (00:00) 13.9 6.39 (12:50) 4.17 (20:10) 0 0 0 0 0
17-02-2021 17.1 (16:10) 11.2 (00:00) 14.2 9.72 (12:10) 5.56 (12:10) 0 0 0 0 0
16-02-2021 19 (11:50) 11.6 (00:00) 15.3 8.33 (02:10) 4.17 (12:40) 0 0 0 0 0
15-02-2021 21.8 (11:30) 14.7 (00:00) 18.2 10.28 (08:40) 3.33 (08:50) 0 0 0 0 0
14-02-2021 19.2 (13:40) 9.8 (00:00) 14.5 4.44 (07:30) 2.78 (07:20) 0 0 0 0 0
13-02-2021 17.5 (15:30) 10.6 (00:00) 14.1 6.39 (05:10) 4.44 (05:10) 0 0 0 0 0
12-02-2021 17.8 (15:20) 10.3 (00:00) 14 5 (01:10) 3.06 (09:00) 0.2 0.2 0 0 0
11-02-2021 16.1 (15:10) 10 (00:00) 13.1 5 (17:10) 3.33 (22:20) 1 0.2 0 0.4 0.4
10-02-2021 16.3 (15:50) 10.7 (00:00) 13.5 6.67 (14:10) 4.44 (18:10) 0 0 0 0 0
09-02-2021 15.6 (16:40) 9.9 (00:00) 12.8 7.78 (14:50) 5.83 (14:50) 0.2 0 0 0.2 0
08-02-2021 16 (15:10) 10.1 (00:00) 13.1 8.61 (20:50) 5.56 (20:50) 0 0 0 0 0
07-02-2021 14.8 (12:30) 8.9 (00:00) 11.8 4.17 (11:10) 1.94 (12:40) 0 0 0 0 0
06-02-2021 15.7 (16:10) 8.5 (00:00) 12.1 12.5 (04:40) 6.11 (16:40) 0 0 0 0 0
05-02-2021 12.7 (17:10) 5.5 (00:00) 9.1 17.5 (00:10) 10 (03:30) 6.4 4 1.2 1.2 0
04-02-2021 13.3 (15:10) 6.9 (00:00) 10.1 19.44 (14:10) 11.94 (16:00) 1.6 0 0.2 0.2 1.2
03-02-2021 15.7 (12:20) 10.8 (00:00) 13.3 6.39 (17:20) 4.44 (17:20) 0 0 0 0 0
02-02-2021 20.3 (10:30) 12 (23:50) 16.1 5 (12:10) 3.61 (07:40) 0 0 0 0 0
01-02-2021 21.1 (15:50) 15.2 (00:00) 18.2 4.17 (08:00) 2.78 (05:50) 0 0 0 0 0
31-01-2021 20.2 (15:10) 12.3 (00:00) 16.3 8.33 (09:10) 6.67 (09:20) 0 0 0 0 0
30-01-2021 21.8 (14:50) 15.1 (00:00) 18.4 6.39 (04:10) 3.89 (04:10) 0 0 0 0 0

Gráficas

Temp. máximas Temp. mínimas Temp. medias Precipitaciones Rachas de viento máximas Velocidades máximas media en intervalos de 10 minutos

Datos horarios

Fecha y hora oficial Temperatura (ºC) Velocidad del viento (km/h) Dirección del viento Racha (km/h) Dirección de racha Precipitación (mm) Presión (hPa) Tendencia (hPa) Humedad (%)
2021-02-28 23:00:00 11.1 2 Noroeste 5 Norte 0 -- -- 91
2021-02-28 22:00:00 11.4 2 Norte 5 Norte 0 -- -- 91
2021-02-28 21:00:00 11.9 0 Calma 6 Sudoeste 0 -- -- 88
2021-02-28 20:00:00 12.5 0 Calma 9 Este 0 -- -- 85
2021-02-28 19:00:00 14.8 3 Norte 12 Noroeste 0 -- -- 75
2021-02-28 18:00:00 15.6 5 Oeste 13 Sudoeste 0 -- -- 70
2021-02-28 17:00:00 16.4 5 Norte 17 Oeste 0 -- -- 62
2021-02-28 16:00:00 16.1 4 Noroeste 15 Noroeste 0 -- -- 61
2021-02-28 15:00:00 16.4 7 Noroeste 19 Noroeste 0 -- -- 60
2021-02-28 14:00:00 16.7 5 Norte 17 Sur 0 -- -- 68
2021-02-28 13:00:00 16.4 5 Norte 13 Noroeste 0 -- -- 70
2021-02-28 12:00:00 15.5 6 Noroeste 17 Noroeste 0 -- -- 68
2021-02-28 11:00:00 13.9 5 Noroeste 12 Noroeste 0 -- -- 72
2021-02-28 10:00:00 11.7 3 Noroeste 12 Sudeste 0 -- -- 69
2021-02-28 09:00:00 9.8 5 Norte 15 Norte 0 -- -- 73
2021-02-28 08:00:00 8.7 3 Norte 11 Noroeste 0 -- -- 75
2021-02-28 07:00:00 8.5 3 Noroeste 6 Oeste 0 -- -- 77
2021-02-28 06:00:00 8.5 3 Este 11 Sudeste 0 -- -- 78
2021-02-28 05:00:00 8.3 0 Calma 5 Nordeste 0 -- -- 78
2021-02-28 04:00:00 8.1 0 Calma 9 Sudeste 0 -- -- 83
2021-02-28 03:00:00 8.5 0 Calma 12 Norte 0 -- -- 83
2021-02-28 02:00:00 8.6 5 Norte 10 Norte 0 -- -- 84
2021-02-28 01:00:00 8.7 2 Nordeste 6 Sudeste 0 -- -- 82
2021-02-28 00:00:00 9.2 0 Calma 6 Nordeste 0 -- -- 80
2021-02-27 23:00:00 9.1 0 Calma 11 Nordeste 0 -- -- 79
2021-02-27 22:00:00 9.4 3 Noroeste 8 Norte 0 -- -- 79
2021-02-27 21:00:00 9.7 4 Noroeste 13 Sudoeste 0 -- -- 81
2021-02-27 20:00:00 10.4 0 Calma 8 Oeste 0 -- -- 75
2021-02-27 19:00:00 12.8 2 Norte 11 Norte 0 -- -- 68
2021-02-27 18:00:00 14.2 5 Norte 30 Noroeste 0 -- -- 62
2021-02-27 17:00:00 13.3 9 Noroeste 16 Oeste 0 -- -- 68
2021-02-27 16:00:00 14.4 5 Noroeste 18 Sudoeste 0 -- -- 66
2021-02-27 15:00:00 13.5 6 Noroeste 14 Oeste 0 -- -- 65
2021-02-27 14:00:00 13.1 3 Norte 16 Oeste 0 -- -- 69
2021-02-27 13:00:00 13.5 5 Noroeste 22 Sudoeste 0 -- -- 67
2021-02-27 12:00:00 15 8 Noroeste 21 Sudoeste 0 -- -- 60
2021-02-27 11:00:00 12.9 6 Oeste 17 Sur 0 -- -- 62
2021-02-27 10:00:00 11.3 4 Nordeste 14 Nordeste 0 -- -- 65
2021-02-27 09:00:00 9.4 2 Nordeste 13 Norte 0 -- -- 74
2021-02-27 08:00:00 9.2 8 Nordeste 15 Nordeste 0 -- -- 75
2021-02-27 07:00:00 8.7 6 Norte 8 Norte 0 -- -- 78
2021-02-27 06:00:00 9 2 Este 6 Este 0 -- -- 75
2021-02-27 05:00:00 9.2 0 Calma 11 Norte 0 -- -- 78
2021-02-27 04:00:00 9 12 Norte 14 Norte 0 -- -- 78
2021-02-27 03:00:00 9.4 5 Nordeste 8 Nordeste 0 -- -- 74
2021-02-27 02:00:00 9.5 5 Nordeste 21 Nordeste 0 -- -- 78
2021-02-27 01:00:00 9.3 6 Norte 13 Norte 0 -- -- 80
2021-02-27 00:00:00 9.5 2 Noroeste 10 Norte 0 -- -- 81
2021-02-26 23:00:00 9.9 6 Nordeste 13 Nordeste 0 -- -- 76
2021-02-26 22:00:00 10.2 7 Nordeste 19 Nordeste 0 -- -- 77
2021-02-26 21:00:00 10.6 14 Nordeste 22 Nordeste 0 -- -- 77
2021-02-26 20:00:00 11.1 11 Nordeste 13 Nordeste 0 -- -- 74
2021-02-26 19:00:00 13.7 2 Nordeste 9 Oeste 0 -- -- 61
2021-02-26 18:00:00 15.4 4 Norte 20 Nordeste 0 -- -- 60
2021-02-26 17:00:00 15.3 5 Noroeste 18 Sur 0 -- -- 66
2021-02-26 16:00:00 15.8 5 Noroeste 28 Sudeste 0 -- -- 64
2021-02-26 15:00:00 16 6 Norte 22 Sudeste 0 -- -- 67
2021-02-26 14:00:00 15.9 6 Norte 31 Noroeste 0 -- -- 61
2021-02-26 13:00:00 15 8 Oeste 26 Sur 0 -- -- 64
2021-02-26 12:00:00 14.4 11 Noroeste 27 Oeste 0 -- -- 66
2021-02-26 11:00:00 12.9 8 Noroeste 24 Noroeste 0 -- -- 64
2021-02-26 10:00:00 11.2 8 Noroeste 19 Nordeste 0 -- -- 74
2021-02-26 09:00:00 9.5 14 Nordeste 31 Norte 0 -- -- 76
2021-02-26 08:00:00 9.5 10 Noroeste 24 Nordeste 0 -- -- 77
2021-02-26 07:00:00 9.1 4 Norte 24 Sudoeste 0 -- -- 77
2021-02-26 06:00:00 9.3 4 Nordeste 17 Oeste 0 -- -- 76
2021-02-26 05:00:00 9.4 6 Norte 18 Nordeste 0 -- -- 72
2021-02-26 04:00:00 9.3 6 Norte 22 Oeste 0 -- -- 76
2021-02-26 03:00:00 10 9 Norte 21 Nordeste 0 -- -- 62
2021-02-26 02:00:00 10.3 16 Noroeste 26 Oeste 0 -- -- 63
2021-02-26 01:00:00 10.4 17 Norte 33 Norte 0 -- -- 63
2021-02-26 00:00:00 10.2 13 Norte 24 Nordeste 0 -- -- 73
2021-02-25 23:00:00 10.5 15 Norte 23 Norte 0 -- -- 74
2021-02-25 22:00:00 11.1 11 Norte 25 Norte 0 -- -- 75
2021-02-25 21:00:00 11.7 16 Nordeste 24 Nordeste 0 -- -- 68
2021-02-25 20:00:00 11.5 3 Nordeste 25 Oeste 0 -- -- 74
2021-02-25 19:00:00 13.7 10 Oeste 28 Sudoeste 0 -- -- 68
2021-02-25 18:00:00 16.3 5 Norte 18 Sudoeste 0 -- -- 75
2021-02-25 17:00:00 17.2 5 Nordeste 18 Este 0 -- -- 68
2021-02-25 16:00:00 17 9 Nordeste 22 Este 0 -- -- 66
2021-02-25 15:00:00 17.6 6 Norte 17 Noroeste 0 -- -- 61
2021-02-25 14:00:00 17.1 8 Noroeste 24 Noroeste 0 -- -- 71
2021-02-25 13:00:00 16.1 11 Noroeste 20 Noroeste 0 -- -- 77
2021-02-25 12:00:00 16.1 7 Norte 21 Noroeste 0 -- -- 79
2021-02-25 11:00:00 15 7 Noroeste 18 Norte 0 -- -- 85
2021-02-25 10:00:00 14 6 Norte 19 Norte 0 -- -- 91
2021-02-25 09:00:00 12 14 Norte 20 Norte 0 -- -- 96
2021-02-25 08:00:00 11.7 12 Norte 21 Nordeste 0 -- -- 95
2021-02-25 07:00:00 12.9 6 Noroeste 21 Sudeste 0 -- -- 79
2021-02-25 06:00:00 11.5 7 Norte 17 Norte 0 -- -- 93
2021-02-25 05:00:00 12.2 12 Norte 17 Norte 0 -- -- 84
2021-02-25 04:00:00 11.4 11 Norte 18 Norte 0 -- -- 92
2021-02-25 03:00:00 11.4 18 Norte 21 Norte 0 -- -- 92
2021-02-25 02:00:00 11.8 6 Norte 18 Noroeste 0 -- -- 90
2021-02-25 01:00:00 11.6 9 Norte 13 Norte 0 -- -- 91
2021-02-25 00:00:00 12 2 Noroeste 10 Norte 0 -- -- 92
2021-02-24 23:00:00 12.1 4 Norte 12 Norte 0 -- -- 92
2021-02-24 22:00:00 12 11 Norte 17 Norte 0 -- -- 93
2021-02-24 21:00:00 12.5 10 Norte 13 Norte 0 -- -- 93
2021-02-24 20:00:00 12.9 10 Norte 15 Noroeste 0 -- -- 92
2021-02-24 19:00:00 14.4 4 Sudoeste 12 Sur 0 -- -- 82
2021-02-24 18:00:00 15.4 5 Sur 17 Oeste 0 -- -- 79
2021-02-24 17:00:00 16.6 4 Norte 13 Nordeste 0 -- -- 77
2021-02-24 16:00:00 17 5 Oeste 16 Oeste 0 -- -- 78
2021-02-24 15:00:00 17.4 9 Noroeste 20 Oeste 0 -- -- 75
2021-02-24 14:00:00 17.2 5 Norte 19 Oeste 0 -- -- 73
2021-02-24 13:00:00 17 4 Noroeste 14 Noroeste 0 -- -- 75
2021-02-24 12:00:00 16 7 Noroeste 15 Noroeste 0 -- -- 76
2021-02-24 11:00:00 14.7 2 Noroeste 9 Nordeste 0 -- -- 80
2021-02-24 10:00:00 12.8 0 Calma 13 Oeste 0 -- -- 88
2021-02-24 09:00:00 11 3 Norte 8 Sur 0 -- -- 93
2021-02-24 08:00:00 10.7 0 Calma 4 Oeste 0 -- -- 95
2021-02-24 07:00:00 10.6 4 Noroeste 12 Norte 0 -- -- 95
2021-02-24 06:00:00 10.3 7 Norte 19 Norte 0 -- -- 94
2021-02-24 05:00:00 10.6 4 Noroeste 8 Nordeste 0 -- -- 96
2021-02-24 04:00:00 11.1 0 Calma 5 Sudoeste 0 -- -- 96
2021-02-24 03:00:00 11.8 0 Calma 5 Nordeste 0 -- -- 96
2021-02-24 02:00:00 11.6 0 Calma 7 Sudoeste 0 -- -- 96
2021-02-24 01:00:00 12.1 0 Calma 5 Noroeste 0 -- -- 97
2021-02-24 00:00:00 12 0 Calma 5 Sudoeste 0 -- -- 97
2021-02-23 23:00:00 11.9 0 Calma 9 Este 0 -- -- 96
2021-02-23 22:00:00 12.3 3 Norte 12 Noroeste 0 -- -- 97
2021-02-23 21:00:00 13 5 Norte 11 Norte 0 -- -- 97
2021-02-23 20:00:00 13.2 8 Norte 14 Norte 0 -- -- 96
2021-02-23 19:00:00 14.1 10 Norte 21 Norte 0 -- -- 93
2021-02-23 18:00:00 15.5 14 Norte 21 Norte 0 -- -- 89
2021-02-23 17:00:00 17.3 9 Norte 19 Noroeste 0 -- -- 86
2021-02-23 16:00:00 16.4 15 Norte 24 Norte 0 -- -- 88
2021-02-23 15:00:00 16.4 15 Norte 28 Norte 0 -- -- 87
2021-02-23 14:00:00 16.5 13 Noroeste 23 Norte 0 -- -- 87
2021-02-23 13:00:00 16.4 5 Noroeste 12 Noroeste 0.2 -- -- 85
2021-02-23 12:00:00 15.6 4 Noroeste 9 Noroeste 0 -- -- 88
2021-02-23 11:00:00 15.4 2 Norte 8 Noroeste 0 -- -- 88
2021-02-23 10:00:00 13.9 0 Calma 5 Nordeste 0 -- -- 77
2021-02-23 09:00:00 12 3 Norte 7 Sudeste 0 -- -- 77
2021-02-23 08:00:00 11.5 4 Sudeste 6 Sudeste 0 -- -- 84
2021-02-23 07:00:00 11.6 0 Calma 13 Sudeste 0 -- -- 85
2021-02-23 06:00:00 11.2 0 Calma 9 Sudeste 0 -- -- 87
2021-02-23 05:00:00 11.5 2 Norte 10 Nordeste 0 -- -- 89
2021-02-23 04:00:00 11.6 3 Norte 10 Sudeste 0 -- -- 90
2021-02-23 03:00:00 12.2 2 Nordeste 13 Este 0 -- -- 91
2021-02-23 02:00:00 12.2 0 Calma 4 Norte 0 -- -- 95
2021-02-23 01:00:00 11.9 -- -- -- -- 0 -- -- 96
2021-02-23 00:00:00 12.2 2 Noroeste 5 Norte 0 -- -- 97
2021-02-22 23:00:00 12.8 0 Calma 5 Oeste 0 -- -- 98
2021-02-22 22:00:00 13.1 0 Calma 6 Sudeste 0 -- -- 98
2021-02-22 21:00:00 13.1 2 Norte 6 Este 0.2 -- -- 98
2021-02-22 20:00:00 13.7 4 Noroeste 7 Norte 0 -- -- 98
2021-02-22 19:00:00 13.6 5 Noroeste 12 Norte 0.4 -- -- 97
2021-02-22 18:00:00 13.8 5 Noroeste 9 Noroeste 0.6 -- -- 97
2021-02-22 17:00:00 13.7 6 Noroeste 11 Noroeste 0.2 -- -- 97
2021-02-22 16:00:00 14.3 8 Norte 15 Noroeste 0 -- -- 93
2021-02-22 15:00:00 15.3 10 Noroeste 18 Norte 0 -- -- 86
2021-02-22 14:00:00 16.4 11 Noroeste 22 Noroeste 0 -- -- 83
2021-02-22 13:00:00 16 8 Norte 13 Noroeste 0 -- -- 88
2021-02-22 12:00:00 15.7 3 Nordeste 10 Norte 0 -- -- 84
2021-02-22 11:00:00 14.8 5 Noroeste 11 Sudoeste 0 -- -- 84
2021-02-22 10:00:00 13 0 Calma 9 Nordeste 0 -- -- 89
2021-02-22 09:00:00 11 0 Calma 14 Norte 0 -- -- 93
2021-02-22 08:00:00 11.2 7 Nordeste 15 Norte 0 -- -- 89
2021-02-22 07:00:00 11 7 Norte 17 Nordeste 0 -- -- 91
2021-02-22 06:00:00 11 11 Nordeste 16 Nordeste 0 -- -- 90
2021-02-22 05:00:00 10.9 9 Nordeste 19 Norte 0 -- -- 91
2021-02-22 04:00:00 10.6 13 Norte 19 Norte 0 -- -- 92
2021-02-22 03:00:00 10.7 10 Nordeste 15 Nordeste 0 -- -- 91
2021-02-22 02:00:00 10.3 7 Nordeste 10 Nordeste 0 -- -- 90
2021-02-22 01:00:00 10.6 4 Nordeste 13 Sudeste 0 -- -- 89
2021-02-22 00:00:00 10.1 6 Nordeste 10 Norte 0 -- -- 88
2021-02-21 23:00:00 10.3 3 Nordeste 11 Norte 0 -- -- 87
2021-02-21 22:00:00 10.4 3 Oeste 11 Norte 0 -- -- 86
2021-02-21 21:00:00 10.4 9 Norte 17 Norte 0 -- -- 88
2021-02-21 20:00:00 10.6 14 Norte 24 Norte 0 -- -- 88
2021-02-21 19:00:00 11.9 16 Norte 30 Norte 0 -- -- 80
2021-02-21 18:00:00 13.7 18 Norte 30 Norte 0 -- -- 76
2021-02-21 17:00:00 14.4 15 Norte 30 Norte 0 -- -- 75
2021-02-21 16:00:00 14.6 14 Norte 33 Norte 0 -- -- 75
2021-02-21 15:00:00 14.4 7 Norte 28 Norte 0 -- -- 77
2021-02-21 14:00:00 14.8 16 Noroeste 28 Norte 0 -- -- 74
2021-02-21 13:00:00 14.9 4 Noroeste 15 Oeste 0 -- -- 73
2021-02-21 12:00:00 14.5 5 Noroeste 19 Sur 0 -- -- 72
2021-02-21 11:00:00 13.2 3 Norte 13 Sudeste 0 -- -- 77
2021-02-21 10:00:00 11.4 5 Norte 10 Oeste 0 -- -- 80
2021-02-21 09:00:00 10.1 3 Oeste 26 Norte 0 -- -- 83
2021-02-21 08:00:00 9.8 18 Norte 36 Norte 0 -- -- 79
2021-02-21 07:00:00 10.4 18 Norte 43 Norte 0 -- -- 79
2021-02-21 06:00:00 10.6 31 Norte 53 Norte 0 -- -- 80
2021-02-21 05:00:00 10 22 Norte 55 Norte 0 -- -- 92
2021-02-21 04:00:00 10.9 36 Norte 54 Norte 0 -- -- 72
2021-02-21 03:00:00 10.9 38 Norte 55 Norte 0 -- -- 78
2021-02-21 02:00:00 10.3 35 Norte 56 Norte 0 -- -- 96
2021-02-21 01:00:00 10.6 40 Norte 61 Norte 0 -- -- 99
2021-02-21 00:00:00 10.6 39 Norte 64 Nordeste 0 -- -- 99
2021-02-20 23:00:00 10.4 43 Norte 72 Norte 0 -- -- 99
2021-02-20 22:00:00 11.7 43 Norte 60 Nordeste 0.2 -- -- 100
2021-02-20 21:00:00 11.5 36 Norte 61 Nordeste 0.6 -- -- 100
2021-02-20 20:00:00 12.2 33 Norte 62 Norte 0 -- -- 100
2021-02-20 19:00:00 12.5 37 Norte 67 Norte 0.2 -- -- 100
2021-02-20 18:00:00 13.1 40 Norte 65 Norte 4.6 -- -- 100
2021-02-20 17:00:00 14.4 30 Noroeste 62 Noroeste 0.2 -- -- 99
2021-02-20 16:00:00 14.3 35 Noroeste 57 Noroeste 0 -- -- 99
2021-02-20 15:00:00 14.3 34 Noroeste 51 Noroeste 1.2 -- -- 98
2021-02-20 14:00:00 14 27 Noroeste 40 Noroeste 2.8 -- -- 98
2021-02-20 13:00:00 13.6 16 Noroeste 26 Noroeste 0.4 -- -- 96
2021-02-20 12:00:00 14.9 4 Oeste 22 Oeste 0 -- -- 85
2021-02-20 11:00:00 14.4 4 Nordeste 14 Este 0 -- -- 87
2021-02-20 10:00:00 13.7 0 Calma 16 Nordeste 0 -- -- 84
2021-02-20 09:00:00 13.3 4 Nordeste 13 Nordeste 0 -- -- 84
2021-02-20 08:00:00 12.2 0 Calma 9 Este 0 -- -- 83
2021-02-20 07:00:00 11.3 5 Nordeste 13 Nordeste 0 -- -- 86
2021-02-20 06:00:00 11.1 10 Norte 16 Noroeste 0 -- -- 85
2021-02-20 05:00:00 10.9 3 Sudoeste 13 Noroeste 0 -- -- 89
2021-02-20 04:00:00 10.8 3 Oeste 12 Nordeste 0 -- -- 83
2021-02-20 03:00:00 10.8 4 Nordeste 11 Sudeste 0 -- -- 64
2021-02-20 02:00:00 10.6 0 Calma 6 Este 0 -- -- 90
2021-02-20 01:00:00 10.9 4 Norte 6 Norte 0 -- -- 88
2021-02-20 00:00:00 11.3 0 Calma 8 Nordeste 0 -- -- 57
2021-02-19 23:00:00 12.1 4 Nordeste 18 Sur 0 -- -- 41
2021-02-19 22:00:00 11.1 3 Este 18 Norte 0 -- -- 75
2021-02-19 21:00:00 11.5 10 Norte 17 Sudeste 0 -- -- 56
2021-02-19 20:00:00 12.1 4 Noroeste 13 Oeste 0 -- -- 73
2021-02-19 19:00:00 14 0 Calma 10 Noroeste 0 -- -- 65
2021-02-19 18:00:00 16.5 2 Noroeste 13 Norte 0 -- -- 64
2021-02-19 17:00:00 17.4 7 Noroeste 18 Oeste 0 -- -- 51
2021-02-19 16:00:00 17.9 4 Noroeste 14 Norte 0 -- -- 60
2021-02-19 15:00:00 18 3 Norte 13 Norte 0 -- -- 63
2021-02-19 14:00:00 17.6 5 Noroeste 17 Oeste 0 -- -- 68
2021-02-19 13:00:00 16.5 3 Noroeste 15 Sudoeste 0 -- -- 69
2021-02-19 12:00:00 16 6 Oeste 16 Sur 0 -- -- 58
2021-02-19 11:00:00 15.2 4 Norte 11 Oeste 0 -- -- 64
2021-02-19 10:00:00 13.6 5 Nordeste 11 Sudeste 0 -- -- 45
2021-02-19 09:00:00 11.7 5 Norte 13 Sudeste 0 -- -- 48
2021-02-19 08:00:00 9.9 5 Nordeste 18 Norte 0 -- -- 56
2021-02-19 07:00:00 9.9 14 Norte 18 Nordeste 0 -- -- 60
2021-02-19 06:00:00 10.5 2 Noroeste 12 Oeste 0 -- -- 52
2021-02-19 05:00:00 10 3 Norte 10 Noroeste 0 -- -- 72
2021-02-19 04:00:00 10.1 0 Calma 13 Sudeste 0 -- -- 89
2021-02-19 03:00:00 10.1 4 Noroeste 11 Nordeste 0 -- -- 93
2021-02-19 02:00:00 10.1 8 Nordeste 13 Nordeste 0 -- -- 90
2021-02-19 01:00:00 10.3 0 Calma 8 Norte 0 -- -- 92
2021-02-19 00:00:00 10.7 0 Calma 8 Oeste 0 -- -- 91
2021-02-18 23:00:00 10.8 2 Este 13 Nordeste 0 -- -- 89
2021-02-18 22:00:00 10.9 4 Norte 12 Nordeste 0 -- -- 89
2021-02-18 21:00:00 11.2 11 Nordeste 19 Norte 0 -- -- 89
2021-02-18 20:00:00 11.6 13 Norte 15 Norte 0 -- -- 86
2021-02-18 19:00:00 13.2 12 Norte 17 Noroeste 0 -- -- 79
2021-02-18 18:00:00 15.3 3 Noroeste 10 Sudoeste 0 -- -- 69
2021-02-18 17:00:00 16.1 4 Sudoeste 14 Sudoeste 0 -- -- 64
2021-02-18 16:00:00 17.4 6 Noroeste 16 Noroeste 0 -- -- 61
2021-02-18 15:00:00 17.3 6 Noroeste 19 Sudoeste 0 -- -- 63
2021-02-18 14:00:00 16.6 4 Norte 19 Norte 0 -- -- 70
2021-02-18 13:00:00 15.2 10 Norte 23 Norte 0 -- -- 73
2021-02-18 12:00:00 14.7 13 Norte 23 Norte 0 -- -- 71
2021-02-18 11:00:00 14.2 6 Noroeste 11 Norte 0 -- -- 71
2021-02-18 10:00:00 12.4 5 Nordeste 12 Nordeste 0 -- -- 74
2021-02-18 09:00:00 10.3 3 Norte 9 Norte 0 -- -- 85
2021-02-18 08:00:00 10.4 0 Calma 8 Noroeste 0 -- -- 83
2021-02-18 07:00:00 10.7 2 Sur 9 Norte 0 -- -- 74
2021-02-18 06:00:00 10.9 6 Norte 11 Sur 0 -- -- 70
2021-02-18 05:00:00 10.8 5 Nordeste 10 Norte 0 -- -- 71
2021-02-18 04:00:00 11 3 Noroeste 7 Noroeste 0 -- -- 75
2021-02-18 03:00:00 11.2 0 Calma 5 Sudeste 0 -- -- 74
2021-02-18 02:00:00 11 0 Calma 5 Sudeste 0 -- -- 73
2021-02-18 01:00:00 11.1 0 Calma 4 Sudoeste 0 -- -- 75
2021-02-18 00:00:00 11.2 0 Calma 8 Sur 0 -- -- 73
2021-02-17 23:00:00 11.4 2 Nordeste 8 Norte 0 -- -- 66
2021-02-17 22:00:00 11.7 3 Norte 9 Norte 0 -- -- 60
2021-02-17 21:00:00 12.3 3 Norte 10 Norte 0 -- -- 50
2021-02-17 20:00:00 12.5 3 Norte 10 Noroeste 0 -- -- 50
2021-02-17 19:00:00 13.4 2 Nordeste 10 Oeste 0 -- -- 52
2021-02-17 18:00:00 14.8 6 Oeste 21 Noroeste 0 -- -- 36
2021-02-17 17:00:00 16.5 11 Noroeste 22 Noroeste 0 -- -- 36
2021-02-17 16:00:00 16.8 8 Noroeste 22 Noroeste 0 -- -- 48
2021-02-17 15:00:00 16.8 12 Norte 30 Norte 0 -- -- 46
2021-02-17 14:00:00 16.5 17 Norte 28 Norte 0 -- -- 47
2021-02-17 13:00:00 16.4 18 Norte 35 Norte 0 -- -- 43
2021-02-17 12:00:00 16.3 17 Norte 30 Norte 0 -- -- 41
2021-02-17 11:00:00 15.6 6 Norte 13 Norte 0 -- -- 42
2021-02-17 10:00:00 14.1 5 Norte 9 Norte 0 -- -- 40
2021-02-17 09:00:00 13.2 8 Nordeste 12 Nordeste 0 -- -- 32
2021-02-17 08:00:00 12.4 3 Sudoeste 9 Este 0 -- -- 28
2021-02-17 07:00:00 12.7 2 Norte 15 Sudeste 0 -- -- 28
2021-02-17 06:00:00 13 0 Calma 9 Sudeste 0 -- -- 40
2021-02-17 05:00:00 13.4 3 Norte 17 Noroeste 0 -- -- 40
2021-02-17 04:00:00 14.1 6 Noroeste 22 Oeste 0 -- -- 37
2021-02-17 03:00:00 14.3 8 Noroeste 24 Nordeste 0 -- -- 24
2021-02-17 02:00:00 13.7 5 Noroeste 23 Este 0 -- -- 30
2021-02-17 01:00:00 11.8 8 Noroeste 21 Nordeste 0 -- -- 49
2021-02-17 00:00:00 11.6 3 Noroeste 11 Noroeste 0 -- -- 83
2021-02-16 23:00:00 12 5 Noroeste 10 Nordeste 0 -- -- 76
2021-02-16 22:00:00 12.3 5 Noroeste 15 Oeste 0 -- -- 76
2021-02-16 21:00:00 12.6 4 Noroeste 10 Norte 0 -- -- 75
2021-02-16 20:00:00 12.9 5 Norte 13 Norte 0 -- -- 74
2021-02-16 19:00:00 14.1 9 Norte 13 Norte 0 -- -- 70
2021-02-16 18:00:00 15.8 8 Norte 18 Noroeste 0 -- -- 62
2021-02-16 17:00:00 17.4 10 Noroeste 23 Oeste 0 -- -- 56
2021-02-16 16:00:00 18.3 12 Noroeste 27 Noroeste 0 -- -- 51
2021-02-16 15:00:00 18 10 Noroeste 21 Noroeste 0 -- -- 60
2021-02-16 14:00:00 18.2 12 Norte 22 Noroeste 0 -- -- 53
2021-02-16 13:00:00 18.1 11 Norte 23 Noroeste 0 -- -- 52
2021-02-16 12:00:00 18.7 6 Norte 11 Noroeste 0 -- -- 46
2021-02-16 11:00:00 17.6 6 Noroeste 18 Oeste 0 -- -- 40
2021-02-16 10:00:00 15.8 11 Norte 24 Nordeste 0 -- -- 36
2021-02-16 09:00:00 14 3 Norte 7 Sudeste 0 -- -- 44
2021-02-16 08:00:00 14 2 Nordeste 17 Norte 0 -- -- 42
2021-02-16 07:00:00 14.4 12 Norte 16 Norte 0 -- -- 38
2021-02-16 06:00:00 15.9 8 Nordeste 26 Nordeste 0 -- -- 30
2021-02-16 05:00:00 16.8 7 Noroeste 21 Oeste 0 -- -- 25
2021-02-16 04:00:00 16.8 8 Noroeste 22 Norte 0 -- -- 23
2021-02-16 03:00:00 17.2 7 Noroeste 30 Sudeste 0 -- -- 23
2021-02-16 02:00:00 17.1 7 Noroeste 16 Noroeste 0 -- -- 23
2021-02-16 01:00:00 16.9 7 Noroeste 14 Norte 0 -- -- 30
2021-02-16 00:00:00 16.5 3 Norte 6 Sudeste 0 -- -- 33
2021-02-15 23:00:00 16.6 0 Calma 7 Sur 0 -- -- 37
2021-02-15 22:00:00 16.1 2 Nordeste 12 Noroeste 0 -- -- 42
2021-02-15 21:00:00 16.2 5 Nordeste 17 Este 0 -- -- 44
2021-02-15 20:00:00 16.4 0 Calma 9 Noroeste 0 -- -- 44
2021-02-15 19:00:00 17.8 2 Norte 9 Oeste 0 -- -- 40
2021-02-15 18:00:00 19.6 3 Oeste 11 Sudoeste 0 -- -- 38
2021-02-15 17:00:00 20 4 Oeste 12 Oeste 0 -- -- 48
2021-02-15 16:00:00 20.8 6 Oeste 17 Noroeste 0 -- -- 46
2021-02-15 15:00:00 21.2 6 Oeste 16 Oeste 0 -- -- 39
2021-02-15 14:00:00 20.7 5 Sudoeste 15 Noroeste 0 -- -- 40
2021-02-15 13:00:00 20.7 6 Oeste 18 Sur 0 -- -- 45
2021-02-15 12:00:00 21.5 4 Norte 15 Sudoeste 0 -- -- 34
2021-02-15 11:00:00 20.9 5 Norte 20 Nordeste 0 -- -- 30
2021-02-15 10:00:00 19.3 6 Norte 26 Noroeste 0 -- -- 25
2021-02-15 09:00:00 17.9 10 Noroeste 37 Sudoeste 0 -- -- 25
2021-02-15 08:00:00 17.9 7 Norte 25 Noroeste 0 -- -- 28
2021-02-15 07:00:00 17.7 5 Norte 21 Nordeste 0 -- -- 24
2021-02-15 06:00:00 18 6 Norte 14 Nordeste 0 -- -- 20
2021-02-15 05:00:00 17.7 6 Noroeste 18 Norte 0 -- -- 19
2021-02-15 04:00:00 17.2 4 Noroeste 24 Este 0 -- -- 20
2021-02-15 03:00:00 16.8 6 Norte 36 Sudeste 0 -- -- 23
2021-02-15 02:00:00 15.6 6 Noroeste 12 Noroeste 0 -- -- 30
2021-02-15 01:00:00 15 4 Nordeste 11 Sudeste 0 -- -- 38
2021-02-15 00:00:00 15.4 3 Sudeste 10 Sudeste 0 -- -- 46
2021-02-14 23:00:00 14.3 0 Calma 6 Nordeste 0 -- -- 52
2021-02-14 22:00:00 14.4 5 Nordeste 14 Este 0 -- -- 42
2021-02-14 21:00:00 14.1 3 Norte 12 Noroeste 0 -- -- 72
2021-02-14 20:00:00 14.6 4 Oeste 15 Sudeste 0 -- -- 84
2021-02-14 19:00:00 16.1 8 Sudeste 13 Sur 0 -- -- 79
2021-02-14 18:00:00 17.8 0 Calma 11 Norte 0 -- -- 76
2021-02-14 17:00:00 18.1 3 Norte 10 Sudoeste 0 -- -- 77
2021-02-14 16:00:00 18 3 Noroeste 12 Norte 0 -- -- 75
2021-02-14 15:00:00 18.3 5 Este 13 Sudoeste 0 -- -- 73
2021-02-14 14:00:00 18.9 3 Norte 10 Norte 0 -- -- 71
2021-02-14 13:00:00 18.9 5 Norte 10 Norte 0 -- -- 42
2021-02-14 12:00:00 17.3 4 Sur 11 Sudeste 0 -- -- 71
2021-02-14 11:00:00 16.1 2 Norte 12 Sudeste 0 -- -- 72
2021-02-14 10:00:00 14.6 3 Norte 13 Sudeste 0 -- -- 60
2021-02-14 09:00:00 12.3 2 Sur 14 Sudeste 0 -- -- 72
2021-02-14 08:00:00 11.5 8 Sudeste 16 Sudeste 0 -- -- 46
2021-02-14 07:00:00 10.1 6 Sur 15 Sur 0 -- -- 95
2021-02-14 06:00:00 10.1 2 Nordeste 14 Sur 0 -- -- 97
2021-02-14 05:00:00 10.9 5 Nordeste 14 Sudeste 0 -- -- 97
2021-02-14 04:00:00 10.6 0 Calma 8 Norte 0 -- -- 93
2021-02-14 03:00:00 10.7 5 Norte 8 Norte 0 -- -- 92
2021-02-14 02:00:00 11.4 5 Nordeste 12 Sudeste -- -- -- 91
2021-02-14 01:00:00 12.6 3 Nordeste 12 Sudeste 0 -- -- 77
2021-02-14 00:00:00 12 3 Este 9 Sudeste 0 -- -- 90
2021-02-13 23:00:00 11.4 3 Norte 4 Norte 0 -- -- 95
2021-02-13 22:00:00 11.6 0 Calma 8 Nordeste 0 -- -- 95
2021-02-13 21:00:00 11.7 6 Nordeste 7 Nordeste 0 -- -- 93
2021-02-13 20:00:00 12.4 5 Nordeste 8 Nordeste 0 -- -- 90
2021-02-13 19:00:00 14.4 0 Calma 15 Noroeste 0 -- -- 82
2021-02-13 18:00:00 16.2 3 Sudoeste 14 Noroeste 0 -- -- 77
2021-02-13 17:00:00 17.4 5 Norte 16 Noroeste 0 -- -- 73
2021-02-13 16:00:00 17.2 6 Noroeste 13 Noroeste 0 -- -- 72
2021-02-13 15:00:00 17.2 5 Norte 15 Noroeste 0 -- -- 70
2021-02-13 14:00:00 16.7 5 Norte 17 Sudoeste 0 -- -- 73
2021-02-13 13:00:00 16.4 6 Oeste 22 Sudoeste 0 -- -- 72
2021-02-13 12:00:00 15.8 6 Nordeste 17 Nordeste 0 -- -- 76
2021-02-13 07:00:00 11 4 Norte 11 Oeste 0 -- -- 94
2021-02-13 06:00:00 11.3 3 Sudeste 23 Norte 0 -- -- 91
2021-02-13 05:00:00 11.2 15 Nordeste 17 Nordeste 0 -- -- 95
2021-02-13 04:00:00 11.6 4 Noroeste 9 Noroeste 0 -- -- 94
2021-02-13 03:00:00 11.1 4 Norte 16 Nordeste 0 -- -- 86
2021-02-13 02:00:00 11.4 7 Noroeste 15 Noroeste 0 -- -- 86
2021-02-13 01:00:00 11.6 4 Este 14 Sudoeste 0 -- -- 90
2021-02-13 00:00:00 12.3 2 Sudeste 11 Sudeste 0 -- -- 92
2021-02-12 23:00:00 12.2 3 Nordeste 10 Sur 0 -- -- 93
2021-02-12 22:00:00 12.7 0 Calma 6 Sur 0 -- -- 94
2021-02-12 21:00:00 13.1 3 Sur 8 Sudeste 0 -- -- 94
2021-02-12 20:00:00 13.3 0 Calma 8 Oeste 0 -- -- 91
2021-02-12 19:00:00 14.9 3 Oeste 8 Oeste 0 -- -- 84
2021-02-12 18:00:00 16.5 6 Noroeste 13 Noroeste 0 -- -- 76
2021-02-12 17:00:00 17 6 Noroeste 18 Noroeste 0 -- -- 76
2021-02-12 16:00:00 17.2 5 Norte 14 Noroeste 0 -- -- 71
2021-02-12 15:00:00 17.6 7 Noroeste 15 Noroeste 0 -- -- 68
2021-02-12 14:00:00 17 8 Noroeste 17 Oeste 0 -- -- 76
2021-02-12 13:00:00 16.5 6 Noroeste 12 Noroeste 0 -- -- 75
2021-02-12 12:00:00 16 4 Noroeste 8 Noroeste 0 -- -- 77
2021-02-12 11:00:00 14.5 0 Calma 10 Nordeste 0 -- -- 81
2021-02-12 10:00:00 12.5 5 Norte 14 Nordeste 0 -- -- 83
2021-02-12 09:00:00 10.9 11 Nordeste 17 Nordeste 0 -- -- 87
2021-02-12 08:00:00 10.3 4 Sudeste 10 Sudeste 0 -- -- 90
2021-02-12 07:00:00 10.7 2 Norte 12 Noroeste 0 -- -- 92
2021-02-12 06:00:00 10.4 0 Calma 8 Este 0 -- -- 91
2021-02-12 05:00:00 11.1 2 Sudeste 9 Este 0 -- -- 91
2021-02-12 04:00:00 11.2 6 Sudeste 12 Sudeste 0.2 -- -- 96
2021-02-12 03:00:00 11.1 3 Este 12 Norte 0 -- -- 90
2021-02-12 02:00:00 11.6 3 Este 18 Norte 0 -- -- 88
2021-02-12 01:00:00 11.1 10 Nordeste 16 Nordeste 0 -- -- 94
2021-02-12 00:00:00 11.1 10 Nordeste 13 Norte 0 -- -- 95
2021-02-11 23:00:00 11.5 10 Nordeste 15 Nordeste 0 -- -- 96
2021-02-11 22:00:00 11.9 5 Norte 7 Nordeste 0 -- -- 97
2021-02-11 21:00:00 12.6 0 Calma 7 Sudoeste 0 -- -- 98
2021-02-11 20:00:00 12.8 2 Nordeste 11 Este 0 -- -- 98
2021-02-11 19:00:00 13.7 2 Nordeste 8 Oeste 0.4 -- -- 97
2021-02-11 18:00:00 14 3 Nordeste 18 Sudoeste 0 -- -- 96
2021-02-11 17:00:00 14.6 4 Norte 12 Sudoeste 0.4 -- -- 95
2021-02-11 16:00:00 15.3 4 Nordeste 14 Oeste 0 -- -- 89
2021-02-11 15:00:00 15.9 7 Noroeste 14 Oeste 0 -- -- 85
2021-02-11 14:00:00 15.4 5 Norte 14 Oeste 0 -- -- 85
2021-02-11 13:00:00 15 3 Noroeste 18 Noroeste 0 -- -- 89
2021-02-11 12:00:00 15.8 4 Noroeste 12 Noroeste 0 -- -- 90
2021-02-11 11:00:00 14.1 4 Noroeste 10 Oeste 0 -- -- 91
2021-02-11 10:00:00 11.8 3 Noroeste 8 Oeste 0 -- -- 95
2021-02-11 09:00:00 10.7 0 Calma 6 Norte 0 -- -- 96
2021-02-11 08:00:00 10.1 2 Noroeste 7 Noroeste 0 -- -- 95
2021-02-11 07:00:00 10.1 3 Noroeste 6 Norte 0 -- -- 96
2021-02-11 06:00:00 10.1 0 Calma 5 Nordeste 0 -- -- 96
2021-02-11 05:00:00 10.1 0 Calma 8 Este 0.2 -- -- 96
2021-02-11 04:00:00 10.4 0 Calma 5 Noroeste 0 -- -- 97
2021-02-11 03:00:00 10.5 2 Norte 6 Noroeste 0 -- -- 97
2021-02-11 02:00:00 10.6 2 Norte 6 Nordeste 0 -- -- 97
2021-02-11 01:00:00 11 0 Calma 6 Este 0 -- -- 97
2021-02-11 00:00:00 11.4 0 Calma 6 Este 0 -- -- 96
2021-02-10 23:00:00 12.1 0 Calma 7 Sudeste 0 -- -- 97
2021-02-10 22:00:00 12 0 Calma 4 Nordeste 0 -- -- 96
2021-02-10 21:00:00 12.3 0 Calma 11 Norte 0 -- -- 97
2021-02-10 20:00:00 12.7 8 Norte 18 Norte 0 -- -- 97
2021-02-10 19:00:00 13.4 13 Norte 22 Norte 0 -- -- 96
2021-02-10 18:00:00 14.1 15 Norte 23 Noroeste 0 -- -- 93
2021-02-10 17:00:00 15.2 14 Norte 24 Norte 0 -- -- 88
2021-02-10 16:00:00 16.2 14 Norte 23 Noroeste 0 -- -- 82
2021-02-10 15:00:00 15.5 9 Noroeste 24 Norte 0 -- -- 86
2021-02-10 14:00:00 16.1 14 Norte 21 Norte 0 -- -- 86
2021-02-10 13:00:00 15 9 Norte 15 Norte 0 -- -- 85
2021-02-10 12:00:00 14.7 4 Noroeste 14 Norte 0 -- -- 85
2021-02-10 11:00:00 14.2 8 Norte 16 Norte 0 -- -- 84
2021-02-10 10:00:00 12.4 8 Nordeste 13 Nordeste 0 -- -- 86
2021-02-10 09:00:00 11.5 4 Nordeste 15 Norte 0 -- -- 87
2021-02-10 08:00:00 11.7 12 Nordeste 21 Nordeste 0 -- -- 86
2021-02-10 07:00:00 10.8 11 Nordeste 14 Nordeste 0 -- -- 86
2021-02-10 06:00:00 11 4 Norte 18 Este 0 -- -- 89
2021-02-10 05:00:00 11.8 2 Noroeste 9 Sudeste 0 -- -- 90
2021-02-10 04:00:00 11.7 0 Calma 8 Nordeste 0 -- -- 90
2021-02-10 03:00:00 11.7 3 Nordeste 10 Nordeste 0 -- -- 90
2021-02-10 02:00:00 11.8 5 Norte 11 Noroeste 0 -- -- 91
2021-02-10 01:00:00 11.6 2 Este 7 Este 0 -- -- 89
2021-02-10 00:00:00 11.3 2 Nordeste 5 Sudeste 0 -- -- 90
2021-02-09 23:00:00 11.5 3 Este 13 Nordeste 0 -- -- 90
2021-02-09 22:00:00 11.2 7 Nordeste 13 Nordeste 0 -- -- 94
2021-02-09 21:00:00 11.2 8 Nordeste 13 Norte 0 -- -- 94
2021-02-09 20:00:00 12.4 10 Norte 24 Norte 0 -- -- 97
2021-02-09 19:00:00 12.8 17 Norte 26 Norte 0 -- -- 95
2021-02-09 18:00:00 13.9 18 Norte 28 Norte 0 -- -- 92
2021-02-09 17:00:00 14.8 16 Norte 27 Norte 0 -- -- 89
2021-02-09 16:00:00 14.1 15 Norte 27 Norte 0 -- -- 94
2021-02-09 15:00:00 14.5 17 Norte 28 Norte 0 -- -- 92
2021-02-09 14:00:00 13.8 13 Norte 23 Norte 0.2 -- -- 96
2021-02-09 13:00:00 13.6 13 Norte 20 Noroeste 0 -- -- 97
2021-02-09 12:00:00 13.2 8 Norte 20 Norte 0 -- -- 94
2021-02-09 11:00:00 13.1 9 Norte 19 Norte 0 -- -- 93
2021-02-09 10:00:00 12.7 13 Norte 18 Norte 0 -- -- 89
2021-02-09 09:00:00 11.4 10 Norte 25 Nordeste 0 -- -- 88
2021-02-09 08:00:00 11 15 Norte 24 Nordeste 0 -- -- 89
2021-02-09 07:00:00 11 18 Nordeste 28 Nordeste 0 -- -- 89
2021-02-09 06:00:00 10.6 18 Norte 26 Nordeste 0 -- -- 91
2021-02-09 05:00:00 10.1 14 Nordeste 23 Nordeste 0 -- -- 91
2021-02-09 04:00:00 10.2 15 Nordeste 20 Nordeste 0 -- -- 92
2021-02-09 03:00:00 10.4 13 Norte 22 Nordeste 0 -- -- 92
2021-02-09 02:00:00 9.9 14 Nordeste 19 Nordeste 0 -- -- 92
2021-02-09 01:00:00 10.3 0 Calma 8 Sudoeste 0 -- -- 88
2021-02-09 00:00:00 10.6 2 Noroeste 12 Sur 0 -- -- 88
2021-02-08 23:00:00 11.5 3 Oeste 26 Norte 0 -- -- 87
2021-02-08 22:00:00 11.1 14 Norte 28 Norte 0 -- -- 88
2021-02-08 21:00:00 11.3 17 Norte 31 Norte 0 -- -- 86
2021-02-08 20:00:00 11.7 12 Norte 20 Norte 0 -- -- 92
2021-02-08 19:00:00 12 15 Norte 28 Norte 0 -- -- 92
2021-02-08 18:00:00 12.8 18 Norte 26 Norte 0 -- -- 92
2021-02-08 17:00:00 13.4 13 Norte 23 Norte 0 -- -- 89
2021-02-08 16:00:00 14.8 8 Norte 19 Noroeste 0 -- -- 80
2021-02-08 15:00:00 15.9 4 Norte 13 Nordeste 0 -- -- 75
2021-02-08 14:00:00 15.1 4 Norte 11 Norte 0 -- -- 79
2021-02-08 13:00:00 14.5 2 Norte 12 Oeste 0 -- -- 80
2021-02-08 12:00:00 15.4 4 Noroeste 13 Noroeste 0 -- -- 76
2021-02-08 11:00:00 14.3 6 Nordeste 13 Nordeste 0 -- -- 78
2021-02-08 10:00:00 11.9 3 Noroeste 9 Este 0 -- -- 86
2021-02-08 09:00:00 10.9 3 Norte 9 Este 0 -- -- 90
2021-02-08 08:00:00 10.5 2 Norte 9 Sudeste 0 -- -- 92
2021-02-08 07:00:00 10.4 2 Noroeste 9 Nordeste 0 -- -- 92
2021-02-08 06:00:00 10.4 2 Noroeste 6 Norte 0 -- -- 93
2021-02-08 05:00:00 10.5 3 Norte 11 Noroeste 0 -- -- 94
2021-02-08 04:00:00 10.6 3 Norte 9 Oeste 0 -- -- 94
2021-02-08 03:00:00 10.3 2 Norte 14 Nordeste 0 -- -- 95
2021-02-08 02:00:00 10.1 13 Nordeste 18 Nordeste 0 -- -- 94
2021-02-08 01:00:00 10.4 5 Nordeste 8 Nordeste 0 -- -- 90
2021-02-08 00:00:00 11.1 0 Calma 8 Este 0 -- -- 94
2021-02-07 23:00:00 11.3 0 Calma 5 Sudeste 0 -- -- 93
2021-02-07 22:00:00 11.4 3 Sur 7 Sudoeste 0 -- -- 92
2021-02-07 21:00:00 11.4 3 Nordeste 11 Este 0 -- -- 91
2021-02-07 20:00:00 12.1 0 Calma 5 Nordeste 0 -- -- 85
2021-02-07 19:00:00 12.9 3 Noroeste 12 Noroeste 0 -- -- 82
2021-02-07 18:00:00 13.7 2 Nordeste 11 Noroeste 0 -- -- 80
2021-02-07 17:00:00 14.5 3 Noroeste 14 Oeste 0 -- -- 75
2021-02-07 16:00:00 13.4 3 Norte 15 Noroeste 0 -- -- 78
2021-02-07 15:00:00 13.8 4 Noroeste 14 Norte 0 -- -- 80
2021-02-07 14:00:00 13.1 6 Noroeste 13 Noroeste 0 -- -- 80
2021-02-07 13:00:00 13.5 4 Noroeste 14 Noroeste 0 -- -- 81
2021-02-07 12:00:00 13.5 3 Noroeste 15 Sudoeste 0 -- -- 80
2021-02-07 11:00:00 13.2 3 Norte 11 Nordeste 0 -- -- 79
2021-02-07 10:00:00 10.7 2 Norte 10 Este 0 -- -- 84
2021-02-07 09:00:00 9.3 4 Nordeste 10 Nordeste 0 -- -- 88
2021-02-07 08:00:00 9.3 0 Calma 10 Sudeste 0 -- -- 88
2021-02-07 07:00:00 9 0 Calma 9 Este 0 -- -- 90
2021-02-07 06:00:00 9.1 2 Noroeste 12 Nordeste 0 -- -- 88
2021-02-07 05:00:00 9.2 0 Calma 5 Este 0 -- -- 90
2021-02-07 04:00:00 9.1 0 Calma 4 Norte 0 -- -- 89
2021-02-07 03:00:00 9.4 3 Norte 9 Este 0 -- -- 88
2021-02-07 02:00:00 9.4 2 Nordeste 6 Nordeste 0 -- -- 87
2021-02-07 01:00:00 9.6 2 Noroeste 9 Norte 0 -- -- 88
2021-02-07 00:00:00 10.1 0 Calma 4 Sudeste 0 -- -- 86
2021-02-06 23:00:00 10.3 0 Calma 5 Noroeste 0 -- -- 87
2021-02-06 22:00:00 10.7 0 Calma 5 Oeste 0 -- -- 86
2021-02-06 21:00:00 10.6 2 Norte 8 Norte 0 -- -- 85
2021-02-06 20:00:00 10.9 0 Calma 7 Noroeste 0 -- -- 82
2021-02-06 19:00:00 12.8 0 Calma 11 Nordeste 0 -- -- 70
2021-02-06 18:00:00 14.4 5 Nordeste 17 Noroeste 0 -- -- 64
2021-02-06 17:00:00 14.7 12 Norte 38 Nordeste 0 -- -- 62
2021-02-06 16:00:00 15.3 14 Norte 28 Norte 0 -- -- 65
2021-02-06 15:00:00 14.8 6 Noroeste 21 Noroeste 0 -- -- 65
2021-02-06 14:00:00 15 11 Oeste 21 Noroeste 0 -- -- 63
2021-02-06 13:00:00 14.9 6 Noroeste 18 Noroeste 0 -- -- 61
2021-02-06 12:00:00 14.1 4 Norte 17 Oeste 0 -- -- 69
2021-02-06 11:00:00 12.6 4 Norte 20 Oeste 0 -- -- 71
2021-02-06 10:00:00 10.8 6 Nordeste 19 Oeste 0 -- -- 73
2021-02-06 09:00:00 9.9 6 Noroeste 30 Nordeste 0 -- -- 68
2021-02-06 08:00:00 9.3 5 Este 24 Norte 0 -- -- 69
2021-02-06 07:00:00 8.8 6 Sudeste 18 Norte 0 -- -- 74
2021-02-06 06:00:00 9.6 6 Este 40 Nordeste 0 -- -- 70
2021-02-06 05:00:00 9 4 Norte 45 Norte 0 -- -- 76
2021-02-06 04:00:00 9.6 11 Este 26 Nordeste 0 -- -- 63
2021-02-06 03:00:00 8.9 3 Sudoeste 18 Sudeste 0 -- -- 77
2021-02-06 02:00:00 8.7 3 Este 17 Este 0 -- -- 80
2021-02-06 01:00:00 8.8 0 Calma 13 Noroeste 0 -- -- 80
2021-02-06 00:00:00 8.8 3 Sur 13 Este 0 -- -- 78
2021-02-05 23:00:00 9.2 7 Sur 23 Sur 0 -- -- 58
2021-02-05 22:00:00 9.1 7 Noroeste 25 Este 0 -- -- 65
2021-02-05 21:00:00 9.6 5 Norte 35 Este 0 -- -- 60
2021-02-05 20:00:00 9.6 16 Este 54 Nordeste 0 -- -- 59
2021-02-05 19:00:00 9.7 13 Este 46 Nordeste 0 -- -- 66
2021-02-05 18:00:00 10.1 9 Este 38 Norte 0.2 -- -- 72
2021-02-05 17:00:00 12.2 6 Oeste 54 Este 0 -- -- 65
2021-02-05 16:00:00 12.1 6 Nordeste 32 Sudeste 0 -- -- 64
2021-02-05 15:00:00 9.4 16 Sudeste 43 Sudeste 0.4 -- -- 72
2021-02-05 14:00:00 8.9 5 Este 52 Sudeste 0.2 -- -- 83
2021-02-05 13:00:00 8.3 27 Nordeste 54 Nordeste 0.4 -- -- 85
2021-02-05 12:00:00 8.8 23 Nordeste 48 Nordeste 0.4 -- -- 82
2021-02-05 11:00:00 9 11 Nordeste 48 Nordeste 0.2 -- -- 83
2021-02-05 10:00:00 7 26 Nordeste 52 Norte 0.2 -- -- 91
2021-02-05 09:00:00 7.3 26 Norte 58 Norte 0.2 -- -- 84
2021-02-05 08:00:00 7.3 27 Nordeste 46 Nordeste 0 -- -- 84
2021-02-05 07:00:00 7 32 Nordeste 50 Nordeste 0.2 -- -- 89
2021-02-05 06:00:00 6.3 30 Nordeste 49 Nordeste 1.4 -- -- 98
2021-02-05 05:00:00 6.2 17 Nordeste 48 Nordeste 0.6 -- -- 99
2021-02-05 04:00:00 5.5 27 Norte 56 Norte 2 -- -- 98
2021-02-05 03:00:00 8 33 Norte 46 Norte 0 -- -- 93
2021-02-05 02:00:00 7.5 27 Norte 45 Norte 0 -- -- 89
2021-02-05 01:00:00 7.4 24 Norte 63 Norte 0 -- -- 79
2021-02-05 00:00:00 7.1 31 Norte 42 Nordeste 0.2 -- -- 97
2021-02-04 23:00:00 7.6 24 Norte 39 Norte 0 -- -- 97
2021-02-04 22:00:00 7.8 24 Norte 38 Norte 0 -- -- 98
2021-02-04 21:00:00 7.2 25 Norte 44 Norte 0 -- -- 97
2021-02-04 20:00:00 7.1 30 Norte 63 Norte 1 -- -- 97
2021-02-04 19:00:00 9.9 31 Norte 49 Norte 0 -- -- 76
2021-02-04 18:00:00 10.9 31 Norte 56 Norte 0 -- -- 70
2021-02-04 17:00:00 12 41 Norte 59 Norte 0 -- -- 68
2021-02-04 16:00:00 12.1 43 Norte 58 Norte 0.2 -- -- 67
2021-02-04 15:00:00 13 30 Norte 70 Norte 0 -- -- 67
2021-02-04 14:00:00 11.3 35 Norte 57 Noroeste 0 -- -- 79
2021-02-04 13:00:00 12.3 35 Norte 50 Norte 0 -- -- 75
2021-02-04 12:00:00 11.5 32 Nordeste 50 Nordeste 0 -- -- 71
2021-02-04 11:00:00 10 27 Norte 57 Norte 0.2 -- -- 85
2021-02-04 10:00:00 10.3 27 Norte 42 Norte 0 -- -- 85
2021-02-04 09:00:00 10.2 22 Norte 40 Nordeste 0 -- -- 85
2021-02-04 08:00:00 9.8 25 Norte 49 Norte 0 -- -- 77
2021-02-04 07:00:00 10.2 31 Norte 48 Nordeste 0 -- -- 68
2021-02-04 06:00:00 10.2 30 Norte 48 Nordeste 0 -- -- 83
2021-02-04 05:00:00 10.9 30 Norte 48 Nordeste 0 -- -- 79
2021-02-04 04:00:00 11.5 30 Norte 51 Nordeste 0 -- -- 81
2021-02-04 03:00:00 11.1 33 Norte 47 Norte 0 -- -- 85
2021-02-04 02:00:00 12.2 10 Noroeste 27 Noroeste 0 -- -- 81
2021-02-04 01:00:00 11.8 2 Nordeste 12 Norte 0 -- -- 95
2021-02-04 00:00:00 12.2 4 Este 12 Nordeste 0 -- -- 96
2021-02-03 23:00:00 12.1 5 Noroeste 21 Sudeste 0 -- -- 97
2021-02-03 22:00:00 12.4 5 Noroeste 19 Norte 0 -- -- 97
2021-02-03 21:00:00 12.2 2 Nordeste 14 Norte 0 -- -- 95
2021-02-03 20:00:00 12.2 3 Norte 23 Norte 0 -- -- 95
2021-02-03 19:00:00 12.5 14 Norte 21 Norte 0 -- -- 92
2021-02-03 18:00:00 14.4 13 Norte 23 Norte 0 -- -- 83
2021-02-03 17:00:00 13.6 13 Norte 19 Norte 0 -- -- 88
2021-02-03 16:00:00 13.9 8 Norte 15 Noroeste 0 -- -- 85
2021-02-03 15:00:00 13.5 5 Noroeste 14 Noroeste 0 -- -- 83
2021-02-03 14:00:00 14.8 6 Noroeste 12 Noroeste 0 -- -- 81
2021-02-03 13:00:00 14.9 3 Norte 17 Este 0 -- -- 81
2021-02-03 12:00:00 15 8 Nordeste 19 Este 0 -- -- 81
2021-02-03 11:00:00 13.7 6 Oeste 17 Oeste 0 -- -- 82
2021-02-03 10:00:00 12.1 5 Oeste 12 Sudoeste 0 -- -- 90
2021-02-03 09:00:00 11.4 0 Calma 8 Nordeste 0 -- -- 95
2021-02-03 08:00:00 10.9 4 Norte 15 Este 0 -- -- 96
2021-02-03 07:00:00 11 5 Norte 11 Nordeste 0 -- -- 95
2021-02-03 06:00:00 11.1 2 Norte 8 Nordeste 0 -- -- 94
2021-02-03 05:00:00 11.6 2 Norte 11 Oeste 0 -- -- 95
2021-02-03 04:00:00 11.9 0 Calma 6 Sudoeste 0 -- -- 96
2021-02-03 03:00:00 11.9 0 Calma 11 Sudeste 0 -- -- 97
2021-02-03 02:00:00 11.8 6 Norte 10 Noroeste 0 -- -- 96
2021-02-03 01:00:00 12 6 Nordeste 13 Nordeste 0 -- -- 97
2021-02-03 00:00:00 12 6 Nordeste 14 Norte 0 -- -- 97
2021-02-02 23:00:00 12.7 2 Noroeste 10 Noroeste 0 -- -- 96
2021-02-02 22:00:00 12.9 2 Norte 15 Nordeste 0 -- -- 96
2021-02-02 21:00:00 13 13 Nordeste 17 Nordeste 0 -- -- 96
2021-02-02 20:00:00 13.4 6 Sudeste 14 Sur 0 -- -- 95
2021-02-02 19:00:00 14.1 4 Nordeste 16 Sudeste 0 -- -- 92
2021-02-02 18:00:00 16.3 3 Nordeste 14 Sudeste 0 -- -- 83
2021-02-02 17:00:00 18.8 4 Noroeste 12 Norte 0 -- -- 75
2021-02-02 16:00:00 18.6 5 Norte 11 Nordeste 0 -- -- 77
2021-02-02 15:00:00 20 5 Norte 10 Nordeste 0 -- -- 73
2021-02-02 14:00:00 19 3 Norte 11 Sudoeste 0 -- -- 77
2021-02-02 13:00:00 18 3 Norte 18 Sudeste 0 -- -- 81
2021-02-02 12:00:00 17.7 4 Nordeste 11 Noroeste 0 -- -- 78
2021-02-02 11:00:00 18.3 3 Nordeste 11 Sur 0 -- -- 73
2021-02-02 10:00:00 18.8 0 Calma 9 Norte 0 -- -- 25
2021-02-02 09:00:00 17.2 3 Norte 12 Nordeste 0 -- -- 29
2021-02-02 08:00:00 18.4 9 Nordeste 17 Nordeste 0 -- -- 21
2021-02-02 07:00:00 16.7 6 Nordeste 10 Sudeste 0 -- -- 27
2021-02-02 06:00:00 17.9 2 Noroeste 9 Sur 0 -- -- 27
2021-02-02 05:00:00 18.4 0 Calma 6 Nordeste 0 -- -- 29
2021-02-02 04:00:00 17.9 4 Este 11 Nordeste 0 -- -- 36
2021-02-02 03:00:00 16.7 4 Nordeste 7 Este 0 -- -- 37
2021-02-02 02:00:00 17.2 0 Calma 13 Sudeste 0 -- -- 42
2021-02-02 01:00:00 15.6 4 Norte 10 Norte 0 -- -- 47
2021-02-02 00:00:00 15.2 5 Norte 9 Norte 0 -- -- 67
2021-02-01 23:00:00 15.8 4 Sudeste 8 Sudeste 0 -- -- 57
2021-02-01 22:00:00 15.4 5 Norte 7 Norte 0 -- -- 65
2021-02-01 21:00:00 16.3 7 Nordeste 10 Norte 0 -- -- 47
2021-02-01 20:00:00 16.3 4 Norte 5 Norte 0 -- -- 62
2021-02-01 19:00:00 17 0 Calma 6 Norte 0 -- -- 75
2021-02-01 18:00:00 19.4 5 Norte 11 Noroeste 0 -- -- 70
2021-02-01 17:00:00 20.1 2 Sur 13 Norte 0 -- -- 68
2021-02-01 16:00:00 20.6 6 Norte 15 Noroeste 0 -- -- 68
2021-02-01 15:00:00 19.9 6 Norte 13 Noroeste 0 -- -- 69
2021-02-01 14:00:00 19.9 3 Nordeste 9 Norte 0 -- -- 67
2021-02-01 13:00:00 20 3 Oeste 13 Sur 0 -- -- 65
2021-02-01 12:00:00 18.9 5 Noroeste 13 Sudoeste 0 -- -- 68
2021-02-01 11:00:00 18.5 2 Noroeste 10 Nordeste 0 -- -- 65
2021-02-01 10:00:00 16.4 4 Sur 10 Sur 0 -- -- 65
2021-02-01 09:00:00 17 5 Norte 12 Nordeste 0 -- -- 42
2021-02-01 08:00:00 16.1 9 Norte 15 Nordeste 0 -- -- 44
2021-02-01 07:00:00 16.1 5 Norte 11 Norte 0 -- -- 42
2021-02-01 06:00:00 15.9 10 Norte 13 Norte 0 -- -- 47
2021-02-01 05:00:00 17 8 Norte 9 Noroeste 0 -- -- 41
2021-02-01 04:00:00 17.9 3 Norte 4 Este 0 -- -- 39
2021-02-01 03:00:00 18 0 Calma 8 Nordeste 0 -- -- 39
2021-02-01 02:00:00 17.3 6 Norte 9 Nordeste 0 -- -- 39
2021-02-01 01:00:00 17.8 3 Noroeste 7 Sudeste 0 -- -- 40
2021-02-01 00:00:00 17.3 4 Noroeste 8 Norte 0 -- -- 41
2021-01-31 23:00:00 17.1 6 Norte 8 Noroeste 0 -- -- 47
2021-01-31 22:00:00 17.1 3 Norte 13 Norte 0 -- -- 47
2021-01-31 21:00:00 17.3 8 Norte 10 Norte 0 -- -- 47
2021-01-31 20:00:00 16.7 9 Nordeste 12 Nordeste 0 -- -- 61
2021-01-31 19:00:00 17.8 4 Norte 18 Sudeste 0 -- -- 66
2021-01-31 18:00:00 17.1 8 Sudeste 20 Sudeste 0 -- -- 77
2021-01-31 17:00:00 18.8 3 Norte 14 Sur 0 -- -- 71
2021-01-31 16:00:00 18 5 Sudeste 14 Sur 0 -- -- 74
2021-01-31 15:00:00 19.8 5 Norte 29 Norte 0 -- -- 67
2021-01-31 14:00:00 18.8 14 Norte 19 Norte 0 -- -- 70
2021-01-31 13:00:00 16.5 5 Sudoeste 23 Sur 0 -- -- 85
2021-01-31 12:00:00 16.6 7 Norte 21 Sudeste 0 -- -- 84
2021-01-31 11:00:00 16.2 3 Nordeste 17 Norte 0 -- -- 80
2021-01-31 10:00:00 14.1 12 Norte 30 Norte 0 -- -- 81
2021-01-31 09:00:00 13.9 21 Norte 27 Norte 0 -- -- 60
2021-01-31 08:00:00 12.5 5 Sudeste 17 Sudeste 0 -- -- 60
2021-01-31 07:00:00 12.6 5 Sudeste 18 Sudeste 0 -- -- 86
2021-01-31 06:00:00 13.8 6 Nordeste 21 Norte 0 -- -- 66
2021-01-31 05:00:00 14.8 14 Nordeste 18 Nordeste 0 -- -- 34
2021-01-31 04:00:00 16.7 6 Norte 15 Sur 0 -- -- 27
2021-01-31 03:00:00 17.3 8 Sudeste 13 Sudeste 0 -- -- 34
2021-01-31 02:00:00 17.6 5 Sudoeste 13 Norte 0 -- -- 38
2021-01-31 01:00:00 14.8 13 Norte 19 Norte 0 -- -- 46
2021-01-31 00:00:00 18.8 3 Noroeste 8 Sur 0 -- -- 23
2021-01-30 23:00:00 19.3 3 Sudeste 17 Sudeste 0 -- -- 21
2021-01-30 22:00:00 16.8 0 Calma 6 Nordeste 0 -- -- 37
2021-01-30 21:00:00 16.5 7 Norte 13 Norte 0 -- -- 31
2021-01-30 20:00:00 16.2 12 Nordeste 16 Nordeste 0 -- -- 48
2021-01-30 19:00:00 17.5 3 Nordeste 13 Sudeste 0 -- -- 59
2021-01-30 18:00:00 17.8 9 Sudeste 15 Sudeste 0 -- -- 76
2021-01-30 17:00:00 18.2 6 Sudeste 11 Este 0 -- -- 75
2021-01-30 16:00:00 20.6 4 Noroeste 10 Noroeste 0 -- -- 65
2021-01-30 15:00:00 21.8 5 Noroeste 12 Norte 0 -- -- 44
2021-01-30 14:00:00 20.7 5 Norte 12 Noroeste 0 -- -- 66
2021-01-30 13:00:00 21.3 4 Noroeste 11 Sudeste 0 -- -- 63
2021-01-30 12:00:00 21.2 5 Nordeste 13 Sudeste 0 -- -- 47
2021-01-30 11:00:00 21 3 Norte 7 Sudeste 0 -- -- 34
2021-01-30 10:00:00 18.7 0 Calma 6 Nordeste 0 -- -- 23
2021-01-30 09:00:00 16.8 4 Nordeste 7 Noroeste 0 -- -- 24
2021-01-30 08:00:00 16.1 2 Norte 7 Noroeste 0 -- -- 24
2021-01-30 07:00:00 15.4 3 Norte 10 Este 0 -- -- 28
2021-01-30 06:00:00 15.3 3 Sur 13 Sudeste 0 -- -- 31
2021-01-30 05:00:00 16.9 2 Norte 23 Nordeste 0 -- -- 39
2021-01-30 04:00:00 17.2 12 Norte 16 Nordeste 0 -- -- 23
2021-01-30 03:00:00 17.6 4 Norte 10 Noroeste 0 -- -- 24
2021-01-30 02:00:00 17.3 5 Noroeste 10 Noroeste 0 -- -- 27
2021-01-30 01:00:00 16.3 3 Norte 12 Sudeste 0 -- -- 30
2021-01-30 00:00:00 17.5 4 Sur 13 Sudeste 0 -- -- 32